sensor_id;sensor_type;location;lat;lon;timestamp;P1;durP1;ratioP1;P2;durP2;ratioP2
71303;SDS011;59091;47.446;19.148;2023-04-16T00:02:09;20.95;;;13.85;;
71303;SDS011;59091;47.446;19.148;2023-04-16T00:04:35;20.27;;;13.57;;
71303;SDS011;59091;47.446;19.148;2023-04-16T00:07:00;21.80;;;14.23;;
71303;SDS011;59091;47.446;19.148;2023-04-16T00:09:26;19.55;;;13.73;;
71303;SDS011;59091;47.446;19.148;2023-04-16T00:11:51;20.15;;;13.27;;
71303;SDS011;59091;47.446;19.148;2023-04-16T00:14:16;19.92;;;14.00;;
71303;SDS011;59091;47.446;19.148;2023-04-16T00:16:42;18.90;;;13.18;;
71303;SDS011;59091;47.446;19.148;2023-04-16T00:19:07;18.13;;;12.82;;
71303;SDS011;59091;47.446;19.148;2023-04-16T00:21:33;21.90;;;13.20;;
71303;SDS011;59091;47.446;19.148;2023-04-16T00:23:58;23.05;;;12.63;;
71303;SDS011;59091;47.446;19.148;2023-04-16T00:26:23;18.48;;;12.82;;
71303;SDS011;59091;47.446;19.148;2023-04-16T00:28:49;23.73;;;14.38;;
71303;SDS011;59091;47.446;19.148;2023-04-16T00:31:14;21.10;;;12.98;;
71303;SDS011;59091;47.446;19.148;2023-04-16T00:33:40;21.58;;;13.02;;
71303;SDS011;59091;47.446;19.148;2023-04-16T00:36:07;23.30;;;13.57;;
71303;SDS011;59091;47.446;19.148;2023-04-16T00:38:33;19.58;;;13.30;;
71303;SDS011;59091;47.446;19.148;2023-04-16T00:40:59;25.27;;;13.40;;
71303;SDS011;59091;47.446;19.148;2023-04-16T00:43:24;25.55;;;14.07;;
71303;SDS011;59091;47.446;19.148;2023-04-16T00:45:53;20.83;;;13.68;;
71303;SDS011;59091;47.446;19.148;2023-04-16T00:48:21;25.15;;;14.82;;
71303;SDS011;59091;47.446;19.148;2023-04-16T00:50:47;19.67;;;13.73;;
71303;SDS011;59091;47.446;19.148;2023-04-16T00:53:13;23.48;;;15.30;;
71303;SDS011;59091;47.446;19.148;2023-04-16T00:55:39;27.50;;;16.17;;
71303;SDS011;59091;47.446;19.148;2023-04-16T00:58:05;24.70;;;16.38;;
71303;SDS011;59091;47.446;19.148;2023-04-16T01:00:31;27.40;;;15.88;;
71303;SDS011;59091;47.446;19.148;2023-04-16T01:02:56;26.63;;;16.60;;
71303;SDS011;59091;47.446;19.148;2023-04-16T01:05:24;26.83;;;17.67;;
71303;SDS011;59091;47.446;19.148;2023-04-16T01:07:49;27.15;;;17.38;;
71303;SDS011;59091;47.446;19.148;2023-04-16T01:10:15;28.60;;;17.67;;
71303;SDS011;59091;47.446;19.148;2023-04-16T01:12:40;27.73;;;17.05;;
71303;SDS011;59091;47.446;19.148;2023-04-16T01:15:06;24.90;;;16.60;;
71303;SDS011;59091;47.446;19.148;2023-04-16T01:17:32;25.67;;;17.25;;
71303;SDS011;59091;47.446;19.148;2023-04-16T01:19:58;27.17;;;17.25;;
71303;SDS011;59091;47.446;19.148;2023-04-16T01:22:24;25.77;;;17.55;;
71303;SDS011;59091;47.446;19.148;2023-04-16T01:24:50;24.48;;;16.38;;
71303;SDS011;59091;47.446;19.148;2023-04-16T01:27:15;23.83;;;16.35;;
71303;SDS011;59091;47.446;19.148;2023-04-16T01:29:41;28.05;;;16.48;;
71303;SDS011;59091;47.446;19.148;2023-04-16T01:32:06;24.77;;;15.75;;
71303;SDS011;59091;47.446;19.148;2023-04-16T01:34:32;25.30;;;15.80;;
71303;SDS011;59091;47.446;19.148;2023-04-16T01:36:57;21.92;;;15.07;;
71303;SDS011;59091;47.446;19.148;2023-04-16T01:39:22;21.00;;;14.73;;
71303;SDS011;59091;47.446;19.148;2023-04-16T01:41:48;20.60;;;14.50;;
71303;SDS011;59091;47.446;19.148;2023-04-16T01:44:13;22.83;;;15.52;;
71303;SDS011;59091;47.446;19.148;2023-04-16T01:46:39;22.00;;;14.55;;
71303;SDS011;59091;47.446;19.148;2023-04-16T01:49:05;19.83;;;13.88;;
71303;SDS011;59091;47.446;19.148;2023-04-16T01:51:31;19.60;;;13.85;;
71303;SDS011;59091;47.446;19.148;2023-04-16T01:53:57;22.15;;;14.15;;
71303;SDS011;59091;47.446;19.148;2023-04-16T01:56:22;22.20;;;14.32;;
71303;SDS011;59091;47.446;19.148;2023-04-16T01:58:48;20.42;;;13.65;;
71303;SDS011;59091;47.446;19.148;2023-04-16T02:01:13;18.08;;;13.43;;
71303;SDS011;59091;47.446;19.148;2023-04-16T02:03:39;21.63;;;13.48;;
71303;SDS011;59091;47.446;19.148;2023-04-16T02:06:05;16.92;;;12.27;;
71303;SDS011;59091;47.446;19.148;2023-04-16T02:08:30;17.65;;;12.55;;
71303;SDS011;59091;47.446;19.148;2023-04-16T02:10:56;16.77;;;12.23;;
71303;SDS011;59091;47.446;19.148;2023-04-16T02:13:22;19.95;;;12.20;;
71303;SDS011;59091;47.446;19.148;2023-04-16T02:15:49;16.70;;;12.13;;
71303;SDS011;59091;47.446;19.148;2023-04-16T02:18:15;18.75;;;12.88;;
71303;SDS011;59091;47.446;19.148;2023-04-16T02:20:41;17.08;;;12.57;;
71303;SDS011;59091;47.446;19.148;2023-04-16T02:23:10;17.27;;;12.50;;
71303;SDS011;59091;47.446;19.148;2023-04-16T02:25:42;18.17;;;12.80;;
71303;SDS011;59091;47.446;19.148;2023-04-16T02:28:09;19.77;;;13.00;;
71303;SDS011;59091;47.446;19.148;2023-04-16T02:30:37;19.15;;;12.15;;
71303;SDS011;59091;47.446;19.148;2023-04-16T02:33:03;19.63;;;13.10;;
71303;SDS011;59091;47.446;19.148;2023-04-16T02:35:31;20.50;;;12.73;;
71303;SDS011;59091;47.446;19.148;2023-04-16T02:38:00;22.10;;;13.90;;
71303;SDS011;59091;47.446;19.148;2023-04-16T02:40:26;19.80;;;13.32;;
71303;SDS011;59091;47.446;19.148;2023-04-16T02:42:52;21.92;;;13.23;;
71303;SDS011;59091;47.446;19.148;2023-04-16T02:45:18;19.08;;;12.68;;
71303;SDS011;59091;47.446;19.148;2023-04-16T02:47:44;22.02;;;13.93;;
71303;SDS011;59091;47.446;19.148;2023-04-16T02:50:10;19.73;;;13.38;;
71303;SDS011;59091;47.446;19.148;2023-04-16T02:52:36;20.05;;;13.20;;
71303;SDS011;59091;47.446;19.148;2023-04-16T02:55:01;16.35;;;12.75;;
71303;SDS011;59091;47.446;19.148;2023-04-16T02:57:27;18.67;;;12.40;;
71303;SDS011;59091;47.446;19.148;2023-04-16T02:59:52;17.25;;;12.65;;
71303;SDS011;59091;47.446;19.148;2023-04-16T03:02:18;18.92;;;13.00;;
71303;SDS011;59091;47.446;19.148;2023-04-16T03:04:43;19.60;;;13.40;;
71303;SDS011;59091;47.446;19.148;2023-04-16T03:07:09;19.52;;;12.50;;
71303;SDS011;59091;47.446;19.148;2023-04-16T03:09:36;19.58;;;13.20;;
71303;SDS011;59091;47.446;19.148;2023-04-16T03:12:02;17.63;;;12.30;;
71303;SDS011;59091;47.446;19.148;2023-04-16T03:14:27;20.55;;;12.77;;
71303;SDS011;59091;47.446;19.148;2023-04-16T03:16:53;16.77;;;12.43;;
71303;SDS011;59091;47.446;19.148;2023-04-16T03:19:18;19.90;;;12.52;;
71303;SDS011;59091;47.446;19.148;2023-04-16T03:21:44;16.73;;;11.73;;
71303;SDS011;59091;47.446;19.148;2023-04-16T03:24:09;17.52;;;11.73;;
71303;SDS011;59091;47.446;19.148;2023-04-16T03:26:35;16.77;;;12.18;;
71303;SDS011;59091;47.446;19.148;2023-04-16T03:29:01;16.48;;;11.98;;
71303;SDS011;59091;47.446;19.148;2023-04-16T03:31:26;17.70;;;11.70;;
71303;SDS011;59091;47.446;19.148;2023-04-16T03:33:52;16.85;;;11.55;;
71303;SDS011;59091;47.446;19.148;2023-04-16T03:36:17;16.23;;;11.02;;
71303;SDS011;59091;47.446;19.148;2023-04-16T03:38:43;15.00;;;11.18;;
71303;SDS011;59091;47.446;19.148;2023-04-16T03:41:08;16.75;;;11.15;;
71303;SDS011;59091;47.446;19.148;2023-04-16T03:43:34;16.77;;;10.75;;
71303;SDS011;59091;47.446;19.148;2023-04-16T03:45:59;19.25;;;11.00;;
71303;SDS011;59091;47.446;19.148;2023-04-16T03:48:25;16.92;;;11.52;;
71303;SDS011;59091;47.446;19.148;2023-04-16T03:50:50;16.75;;;11.30;;
71303;SDS011;59091;47.446;19.148;2023-04-16T03:53:16;15.15;;;11.32;;
71303;SDS011;59091;47.446;19.148;2023-04-16T03:55:41;16.85;;;11.70;;
71303;SDS011;59091;47.446;19.148;2023-04-16T03:58:07;15.95;;;10.88;;
71303;SDS011;59091;47.446;19.148;2023-04-16T04:00:32;14.73;;;10.95;;
71303;SDS011;59091;47.446;19.148;2023-04-16T04:02:58;16.75;;;11.50;;
71303;SDS011;59091;47.446;19.148;2023-04-16T04:05:23;17.25;;;11.35;;
71303;SDS011;59091;47.446;19.148;2023-04-16T04:07:49;16.70;;;11.80;;
71303;SDS011;59091;47.446;19.148;2023-04-16T04:10:14;17.83;;;10.80;;
71303;SDS011;59091;47.446;19.148;2023-04-16T04:12:40;15.77;;;11.57;;
71303;SDS011;59091;47.446;19.148;2023-04-16T04:15:06;15.75;;;11.27;;
71303;SDS011;59091;47.446;19.148;2023-04-16T04:17:32;15.65;;;11.32;;
71303;SDS011;59091;47.446;19.148;2023-04-16T04:19:58;14.00;;;10.43;;
71303;SDS011;59091;47.446;19.148;2023-04-16T04:22:23;15.85;;;11.00;;
71303;SDS011;59091;47.446;19.148;2023-04-16T04:24:49;16.05;;;11.25;;
71303;SDS011;59091;47.446;19.148;2023-04-16T04:27:14;13.88;;;10.48;;
71303;SDS011;59091;47.446;19.148;2023-04-16T04:29:40;13.88;;;10.40;;
71303;SDS011;59091;47.446;19.148;2023-04-16T04:32:05;19.33;;;11.88;;
71303;SDS011;59091;47.446;19.148;2023-04-16T04:34:31;15.18;;;10.27;;
71303;SDS011;59091;47.446;19.148;2023-04-16T04:36:56;15.55;;;10.45;;
71303;SDS011;59091;47.446;19.148;2023-04-16T04:39:21;13.45;;;10.35;;
71303;SDS011;59091;47.446;19.148;2023-04-16T04:41:47;14.27;;;10.80;;
71303;SDS011;59091;47.446;19.148;2023-04-16T04:44:12;14.23;;;10.60;;
71303;SDS011;59091;47.446;19.148;2023-04-16T04:46:38;15.48;;;10.80;;
71303;SDS011;59091;47.446;19.148;2023-04-16T04:49:04;13.00;;;9.93;;
71303;SDS011;59091;47.446;19.148;2023-04-16T04:51:30;14.30;;;10.07;;
71303;SDS011;59091;47.446;19.148;2023-04-16T04:53:56;14.10;;;10.02;;
71303;SDS011;59091;47.446;19.148;2023-04-16T04:56:22;14.75;;;9.48;;
71303;SDS011;59091;47.446;19.148;2023-04-16T04:58:50;14.00;;;9.93;;
71303;SDS011;59091;47.446;19.148;2023-04-16T05:01:16;14.20;;;9.63;;
71303;SDS011;59091;47.446;19.148;2023-04-16T05:03:41;13.90;;;9.30;;
71303;SDS011;59091;47.446;19.148;2023-04-16T05:06:07;13.23;;;9.68;;
71303;SDS011;59091;47.446;19.148;2023-04-16T05:08:32;15.57;;;10.23;;
71303;SDS011;59091;47.446;19.148;2023-04-16T05:10:58;12.98;;;9.00;;
71303;SDS011;59091;47.446;19.148;2023-04-16T05:13:24;13.23;;;8.32;;
71303;SDS011;59091;47.446;19.148;2023-04-16T05:15:49;12.13;;;8.93;;
71303;SDS011;59091;47.446;19.148;2023-04-16T05:18:14;15.32;;;8.80;;
71303;SDS011;59091;47.446;19.148;2023-04-16T05:20:40;12.68;;;8.98;;
71303;SDS011;59091;47.446;19.148;2023-04-16T05:23:05;11.93;;;8.10;;
71303;SDS011;59091;47.446;19.148;2023-04-16T05:25:31;10.48;;;8.43;;
71303;SDS011;59091;47.446;19.148;2023-04-16T05:27:57;11.50;;;7.95;;
71303;SDS011;59091;47.446;19.148;2023-04-16T05:30:22;11.15;;;8.10;;
71303;SDS011;59091;47.446;19.148;2023-04-16T05:32:47;10.40;;;7.93;;
71303;SDS011;59091;47.446;19.148;2023-04-16T05:35:13;10.70;;;8.13;;
71303;SDS011;59091;47.446;19.148;2023-04-16T05:37:38;10.68;;;8.07;;
71303;SDS011;59091;47.446;19.148;2023-04-16T05:40:04;10.30;;;7.57;;
71303;SDS011;59091;47.446;19.148;2023-04-16T05:42:30;10.48;;;7.38;;
71303;SDS011;59091;47.446;19.148;2023-04-16T05:44:56;10.27;;;7.97;;
71303;SDS011;59091;47.446;19.148;2023-04-16T05:47:21;9.25;;;6.95;;
71303;SDS011;59091;47.446;19.148;2023-04-16T05:49:47;11.63;;;7.15;;
71303;SDS011;59091;47.446;19.148;2023-04-16T05:52:12;10.32;;;7.30;;
71303;SDS011;59091;47.446;19.148;2023-04-16T05:54:38;11.25;;;7.40;;
71303;SDS011;59091;47.446;19.148;2023-04-16T05:57:03;10.57;;;7.20;;
71303;SDS011;59091;47.446;19.148;2023-04-16T05:59:29;9.05;;;6.93;;
71303;SDS011;59091;47.446;19.148;2023-04-16T06:01:55;8.95;;;6.63;;
71303;SDS011;59091;47.446;19.148;2023-04-16T06:04:21;12.07;;;6.82;;
71303;SDS011;59091;47.446;19.148;2023-04-16T06:06:46;11.68;;;7.18;;
71303;SDS011;59091;47.446;19.148;2023-04-16T06:09:11;10.70;;;6.90;;
71303;SDS011;59091;47.446;19.148;2023-04-16T06:11:37;7.57;;;6.25;;
71303;SDS011;59091;47.446;19.148;2023-04-16T06:14:02;8.63;;;6.90;;
71303;SDS011;59091;47.446;19.148;2023-04-16T06:16:28;9.68;;;6.90;;
71303;SDS011;59091;47.446;19.148;2023-04-16T06:18:53;9.45;;;7.18;;
71303;SDS011;59091;47.446;19.148;2023-04-16T06:21:19;8.43;;;6.47;;
71303;SDS011;59091;47.446;19.148;2023-04-16T06:23:44;7.97;;;6.57;;
71303;SDS011;59091;47.446;19.148;2023-04-16T06:26:09;10.15;;;5.93;;
71303;SDS011;59091;47.446;19.148;2023-04-16T06:28:35;8.68;;;6.35;;
71303;SDS011;59091;47.446;19.148;2023-04-16T06:31:00;8.93;;;6.28;;
71303;SDS011;59091;47.446;19.148;2023-04-16T06:33:26;8.75;;;6.50;;
71303;SDS011;59091;47.446;19.148;2023-04-16T06:35:51;10.20;;;6.75;;
71303;SDS011;59091;47.446;19.148;2023-04-16T06:38:17;8.05;;;6.65;;
71303;SDS011;59091;47.446;19.148;2023-04-16T06:40:42;10.13;;;6.75;;
71303;SDS011;59091;47.446;19.148;2023-04-16T06:43:08;7.50;;;6.35;;
71303;SDS011;59091;47.446;19.148;2023-04-16T06:45:33;8.48;;;5.93;;
71303;SDS011;59091;47.446;19.148;2023-04-16T06:47:59;8.13;;;5.95;;
71303;SDS011;59091;47.446;19.148;2023-04-16T06:50:25;7.05;;;5.75;;
71303;SDS011;59091;47.446;19.148;2023-04-16T06:52:52;7.88;;;5.78;;
71303;SDS011;59091;47.446;19.148;2023-04-16T06:55:18;10.13;;;5.95;;
71303;SDS011;59091;47.446;19.148;2023-04-16T06:57:44;8.73;;;5.90;;
71303;SDS011;59091;47.446;19.148;2023-04-16T07:00:10;9.02;;;6.25;;
71303;SDS011;59091;47.446;19.148;2023-04-16T07:02:36;7.00;;;5.70;;
71303;SDS011;59091;47.446;19.148;2023-04-16T07:05:01;7.55;;;5.75;;
71303;SDS011;59091;47.446;19.148;2023-04-16T07:07:27;7.00;;;5.63;;
71303;SDS011;59091;47.446;19.148;2023-04-16T07:09:52;8.35;;;5.75;;
71303;SDS011;59091;47.446;19.148;2023-04-16T07:12:18;7.45;;;5.70;;
71303;SDS011;59091;47.446;19.148;2023-04-16T07:14:44;6.63;;;5.20;;
71303;SDS011;59091;47.446;19.148;2023-04-16T07:17:10;6.53;;;5.13;;
71303;SDS011;59091;47.446;19.148;2023-04-16T07:19:36;8.30;;;4.88;;
71303;SDS011;59091;47.446;19.148;2023-04-16T07:22:01;7.47;;;5.53;;
71303;SDS011;59091;47.446;19.148;2023-04-16T07:24:27;7.75;;;5.72;;
71303;SDS011;59091;47.446;19.148;2023-04-16T07:26:52;6.47;;;5.18;;
71303;SDS011;59091;47.446;19.148;2023-04-16T07:29:17;7.85;;;5.88;;
71303;SDS011;59091;47.446;19.148;2023-04-16T07:31:46;7.32;;;5.57;;
71303;SDS011;59091;47.446;19.148;2023-04-16T07:34:11;7.20;;;5.80;;
71303;SDS011;59091;47.446;19.148;2023-04-16T07:36:37;7.45;;;5.28;;
71303;SDS011;59091;47.446;19.148;2023-04-16T07:39:05;9.35;;;5.03;;
71303;SDS011;59091;47.446;19.148;2023-04-16T07:41:31;5.93;;;5.07;;
71303;SDS011;59091;47.446;19.148;2023-04-16T07:43:57;6.70;;;4.90;;
71303;SDS011;59091;47.446;19.148;2023-04-16T07:46:22;5.10;;;4.60;;
71303;SDS011;59091;47.446;19.148;2023-04-16T07:48:48;6.13;;;5.15;;
71303;SDS011;59091;47.446;19.148;2023-04-16T07:51:13;5.85;;;4.80;;
71303;SDS011;59091;47.446;19.148;2023-04-16T07:53:39;5.72;;;4.85;;
71303;SDS011;59091;47.446;19.148;2023-04-16T07:56:05;6.38;;;4.88;;
71303;SDS011;59091;47.446;19.148;2023-04-16T07:58:30;7.53;;;5.03;;
71303;SDS011;59091;47.446;19.148;2023-04-16T08:00:56;7.50;;;4.47;;
71303;SDS011;59091;47.446;19.148;2023-04-16T08:03:22;5.63;;;4.53;;
71303;SDS011;59091;47.446;19.148;2023-04-16T08:05:48;6.22;;;4.53;;
71303;SDS011;59091;47.446;19.148;2023-04-16T08:08:13;5.20;;;4.57;;
71303;SDS011;59091;47.446;19.148;2023-04-16T08:10:38;6.13;;;4.63;;
71303;SDS011;59091;47.446;19.148;2023-04-16T08:13:04;6.63;;;5.13;;
71303;SDS011;59091;47.446;19.148;2023-04-16T08:15:29;7.53;;;5.28;;
71303;SDS011;59091;47.446;19.148;2023-04-16T08:17:55;5.38;;;4.60;;
71303;SDS011;59091;47.446;19.148;2023-04-16T08:20:20;5.28;;;4.60;;
71303;SDS011;59091;47.446;19.148;2023-04-16T08:22:47;6.10;;;4.40;;
71303;SDS011;59091;47.446;19.148;2023-04-16T08:25:13;5.43;;;4.10;;
71303;SDS011;59091;47.446;19.148;2023-04-16T08:27:39;6.72;;;4.55;;
71303;SDS011;59091;47.446;19.148;2023-04-16T08:30:04;9.10;;;4.93;;
71303;SDS011;59091;47.446;19.148;2023-04-16T08:32:31;5.15;;;4.00;;
71303;SDS011;59091;47.446;19.148;2023-04-16T08:34:56;5.47;;;4.60;;
71303;SDS011;59091;47.446;19.148;2023-04-16T08:37:22;5.13;;;4.50;;
71303;SDS011;59091;47.446;19.148;2023-04-16T08:39:47;5.47;;;4.25;;
71303;SDS011;59091;47.446;19.148;2023-04-16T08:42:31;9.70;;;4.63;;
71303;SDS011;59091;47.446;19.148;2023-04-16T08:45:09;6.15;;;4.63;;
71303;SDS011;59091;47.446;19.148;2023-04-16T08:47:39;7.07;;;4.90;;
71303;SDS011;59091;47.446;19.148;2023-04-16T08:50:05;6.05;;;4.50;;
71303;SDS011;59091;47.446;19.148;2023-04-16T08:52:35;4.70;;;4.22;;
71303;SDS011;59091;47.446;19.148;2023-04-16T08:57:39;8.55;;;4.10;;
71303;SDS011;59091;47.446;19.148;2023-04-16T09:00:18;10.48;;;4.50;;
71303;SDS011;59091;47.446;19.148;2023-04-16T09:02:45;5.25;;;4.53;;
71303;SDS011;59091;47.446;19.148;2023-04-16T09:05:13;5.25;;;4.47;;
71303;SDS011;59091;47.446;19.148;2023-04-16T09:07:41;10.52;;;4.38;;
71303;SDS011;59091;47.446;19.148;2023-04-16T09:10:08;6.43;;;4.53;;
71303;SDS011;59091;47.446;19.148;2023-04-16T09:12:34;4.85;;;4.40;;
71303;SDS011;59091;47.446;19.148;2023-04-16T09:15:00;6.32;;;4.07;;
71303;SDS011;59091;47.446;19.148;2023-04-16T09:17:27;5.18;;;4.07;;
71303;SDS011;59091;47.446;19.148;2023-04-16T09:19:53;8.93;;;4.47;;
71303;SDS011;59091;47.446;19.148;2023-04-16T09:22:19;6.22;;;4.15;;
71303;SDS011;59091;47.446;19.148;2023-04-16T09:24:44;6.65;;;4.18;;
71303;SDS011;59091;47.446;19.148;2023-04-16T09:27:10;8.25;;;4.32;;
71303;SDS011;59091;47.446;19.148;2023-04-16T09:29:37;4.63;;;4.22;;
71303;SDS011;59091;47.446;19.148;2023-04-16T09:32:05;59.67;;;8.48;;
71303;SDS011;59091;47.446;19.148;2023-04-16T09:34:32;19.60;;;4.95;;
71303;SDS011;59091;47.446;19.148;2023-04-16T09:37:14;13.18;;;4.53;;
71303;SDS011;59091;47.446;19.148;2023-04-16T09:39:41;5.97;;;4.30;;
71303;SDS011;59091;47.446;19.148;2023-04-16T09:42:07;7.15;;;4.43;;
71303;SDS011;59091;47.446;19.148;2023-04-16T09:44:36;6.38;;;3.88;;
71303;SDS011;59091;47.446;19.148;2023-04-16T09:47:06;5.32;;;3.70;;
71303;SDS011;59091;47.446;19.148;2023-04-16T09:49:41;5.88;;;4.07;;
71303;SDS011;59091;47.446;19.148;2023-04-16T09:52:13;4.18;;;3.78;;
71303;SDS011;59091;47.446;19.148;2023-04-16T09:57:13;4.53;;;3.83;;
71303;SDS011;59091;47.446;19.148;2023-04-16T09:59:42;5.95;;;3.97;;
71303;SDS011;59091;47.446;19.148;2023-04-16T10:02:07;9.68;;;4.10;;
71303;SDS011;59091;47.446;19.148;2023-04-16T10:05:07;6.05;;;3.70;;
71303;SDS011;59091;47.446;19.148;2023-04-16T10:07:27;2.95;;;2.55;;
71303;SDS011;59091;47.446;19.148;2023-04-16T10:09:54;2.65;;;2.42;;
71303;SDS011;59091;47.446;19.148;2023-04-16T10:12:20;4.45;;;3.20;;
71303;SDS011;59091;47.446;19.148;2023-04-16T10:14:45;2.20;;;2.00;;
71303;SDS011;59091;47.446;19.148;2023-04-16T10:17:11;2.10;;;1.85;;
71303;SDS011;59091;47.446;19.148;2023-04-16T10:19:37;7.65;;;2.67;;
71303;SDS011;59091;47.446;19.148;2023-04-16T10:22:03;2.78;;;1.88;;
71303;SDS011;59091;47.446;19.148;2023-04-16T10:24:30;1.85;;;1.70;;
71303;SDS011;59091;47.446;19.148;2023-04-16T10:26:57;2.45;;;1.58;;
71303;SDS011;59091;47.446;19.148;2023-04-16T10:29:22;1.95;;;1.48;;
71303;SDS011;59091;47.446;19.148;2023-04-16T10:31:50;2.75;;;1.70;;
71303;SDS011;59091;47.446;19.148;2023-04-16T10:34:17;3.88;;;1.70;;
71303;SDS011;59091;47.446;19.148;2023-04-16T10:36:45;4.95;;;1.85;;
71303;SDS011;59091;47.446;19.148;2023-04-16T10:39:20;1.80;;;1.70;;
71303;SDS011;59091;47.446;19.148;2023-04-16T10:41:47;1.67;;;1.40;;
71303;SDS011;59091;47.446;19.148;2023-04-16T10:44:14;2.15;;;1.23;;
71303;SDS011;59091;47.446;19.148;2023-04-16T10:46:42;4.05;;;1.50;;
71303;SDS011;59091;47.446;19.148;2023-04-16T10:49:15;1.65;;;1.55;;
71303;SDS011;59091;47.446;19.148;2023-04-16T10:56:54;1.80;;;1.63;;
71303;SDS011;59091;47.446;19.148;2023-04-16T10:59:21;2.42;;;1.60;;
71303;SDS011;59091;47.446;19.148;2023-04-16T11:01:49;1.30;;;1.30;;
71303;SDS011;59091;47.446;19.148;2023-04-16T11:06:59;2.25;;;1.42;;
71303;SDS011;59091;47.446;19.148;2023-04-16T11:12:14;3.40;;;1.52;;
71303;SDS011;59091;47.446;19.148;2023-04-16T11:14:43;2.00;;;1.40;;
71303;SDS011;59091;47.446;19.148;2023-04-16T11:17:13;4.10;;;1.65;;
71303;SDS011;59091;47.446;19.148;2023-04-16T11:19:39;2.88;;;1.40;;
71303;SDS011;59091;47.446;19.148;2023-04-16T11:22:06;1.40;;;1.30;;
71303;SDS011;59091;47.446;19.148;2023-04-16T11:24:32;1.98;;;1.70;;
71303;SDS011;59091;47.446;19.148;2023-04-16T11:26:58;1.90;;;1.63;;
71303;SDS011;59091;47.446;19.148;2023-04-16T11:29:24;1.95;;;1.40;;
71303;SDS011;59091;47.446;19.148;2023-04-16T11:31:53;1.83;;;1.35;;
71303;SDS011;59091;47.446;19.148;2023-04-16T11:34:19;2.83;;;1.40;;
71303;SDS011;59091;47.446;19.148;2023-04-16T11:36:46;1.50;;;1.40;;
71303;SDS011;59091;47.446;19.148;2023-04-16T11:39:13;1.30;;;1.20;;
71303;SDS011;59091;47.446;19.148;2023-04-16T11:41:45;1.80;;;1.70;;
71303;SDS011;59091;47.446;19.148;2023-04-16T11:44:18;5.75;;;1.70;;
71303;SDS011;59091;47.446;19.148;2023-04-16T11:46:45;2.20;;;1.60;;
71303;SDS011;59091;47.446;19.148;2023-04-16T11:49:10;1.73;;;1.63;;
71303;SDS011;59091;47.446;19.148;2023-04-16T11:51:42;1.40;;;1.30;;
71303;SDS011;59091;47.446;19.148;2023-04-16T11:54:17;1.58;;;1.25;;
71303;SDS011;59091;47.446;19.148;2023-04-16T11:56:46;1.25;;;1.25;;
71303;SDS011;59091;47.446;19.148;2023-04-16T11:59:13;1.40;;;1.30;;
71303;SDS011;59091;47.446;19.148;2023-04-16T12:01:40;1.30;;;1.20;;
71303;SDS011;59091;47.446;19.148;2023-04-16T12:04:06;1.88;;;1.40;;
71303;SDS011;59091;47.446;19.148;2023-04-16T12:06:32;1.48;;;1.20;;
71303;SDS011;59091;47.446;19.148;2023-04-16T12:08:58;1.33;;;1.23;;
71303;SDS011;59091;47.446;19.148;2023-04-16T12:11:40;1.75;;;1.23;;
71303;SDS011;59091;47.446;19.148;2023-04-16T12:14:06;1.30;;;1.20;;
71303;SDS011;59091;47.446;19.148;2023-04-16T12:16:35;2.45;;;1.05;;
71303;SDS011;59091;47.446;19.148;2023-04-16T12:19:01;2.20;;;1.00;;
71303;SDS011;59091;47.446;19.148;2023-04-16T12:24:09;3.92;;;1.13;;
71303;SDS011;59091;47.446;19.148;2023-04-16T12:29:13;0.88;;;0.88;;
71303;SDS011;59091;47.446;19.148;2023-04-16T12:31:42;1.38;;;1.17;;
71303;SDS011;59091;47.446;19.148;2023-04-16T12:34:09;1.20;;;1.10;;
71303;SDS011;59091;47.446;19.148;2023-04-16T12:36:35;1.17;;;1.17;;
71303;SDS011;59091;47.446;19.148;2023-04-16T12:39:00;1.90;;;1.80;;
71303;SDS011;59091;47.446;19.148;2023-04-16T12:41:27;2.28;;;1.50;;
71303;SDS011;59091;47.446;19.148;2023-04-16T12:44:00;1.45;;;1.33;;
71303;SDS011;59091;47.446;19.148;2023-04-16T12:49:02;10.18;;;1.92;;
71303;SDS011;59091;47.446;19.148;2023-04-16T12:51:27;4.90;;;1.45;;
71303;SDS011;59091;47.446;19.148;2023-04-16T12:53:53;1.50;;;1.40;;
71303;SDS011;59091;47.446;19.148;2023-04-16T12:56:19;3.53;;;1.00;;
71303;SDS011;59091;47.446;19.148;2023-04-16T12:58:45;1.55;;;1.40;;
71303;SDS011;59091;47.446;19.148;2023-04-16T13:01:10;7.90;;;1.40;;
71303;SDS011;59091;47.446;19.148;2023-04-16T13:03:36;2.92;;;1.35;;
71303;SDS011;59091;47.446;19.148;2023-04-16T13:06:01;3.90;;;1.25;;
71303;SDS011;59091;47.446;19.148;2023-04-16T13:08:27;1.70;;;1.10;;
71303;SDS011;59091;47.446;19.148;2023-04-16T13:10:53;4.43;;;1.20;;
71303;SDS011;59091;47.446;19.148;2023-04-16T13:13:19;1.65;;;1.10;;
71303;SDS011;59091;47.446;19.148;2023-04-16T13:15:44;1.45;;;1.00;;
71303;SDS011;59091;47.446;19.148;2023-04-16T13:18:10;1.65;;;1.00;;
71303;SDS011;59091;47.446;19.148;2023-04-16T13:20:35;2.58;;;1.30;;
71303;SDS011;59091;47.446;19.148;2023-04-16T13:23:01;5.18;;;1.50;;
71303;SDS011;59091;47.446;19.148;2023-04-16T13:25:29;5.88;;;1.30;;
71303;SDS011;59091;47.446;19.148;2023-04-16T13:27:55;7.25;;;1.42;;
71303;SDS011;59091;47.446;19.148;2023-04-16T13:30:21;2.45;;;1.10;;
71303;SDS011;59091;47.446;19.148;2023-04-16T13:32:46;0.80;;;0.80;;
71303;SDS011;59091;47.446;19.148;2023-04-16T13:35:12;6.72;;;2.22;;
71303;SDS011;59091;47.446;19.148;2023-04-16T13:37:37;1.13;;;1.00;;
71303;SDS011;59091;47.446;19.148;2023-04-16T13:40:03;1.98;;;0.93;;
71303;SDS011;59091;47.446;19.148;2023-04-16T13:42:28;1.77;;;1.10;;
71303;SDS011;59091;47.446;19.148;2023-04-16T13:44:54;2.08;;;1.00;;
71303;SDS011;59091;47.446;19.148;2023-04-16T13:47:19;1.45;;;1.00;;
71303;SDS011;59091;47.446;19.148;2023-04-16T13:49:45;1.58;;;1.10;;
71303;SDS011;59091;47.446;19.148;2023-04-16T13:52:11;1.50;;;1.10;;
71303;SDS011;59091;47.446;19.148;2023-04-16T13:54:37;3.30;;;1.13;;
71303;SDS011;59091;47.446;19.148;2023-04-16T13:57:02;2.97;;;1.10;;
71303;SDS011;59091;47.446;19.148;2023-04-16T13:59:27;3.78;;;1.23;;
71303;SDS011;59091;47.446;19.148;2023-04-16T14:01:53;2.40;;;1.20;;
71303;SDS011;59091;47.446;19.148;2023-04-16T14:04:18;1.33;;;0.88;;
71303;SDS011;59091;47.446;19.148;2023-04-16T14:06:46;2.83;;;1.27;;
71303;SDS011;59091;47.446;19.148;2023-04-16T14:09:12;1.67;;;1.52;;
71303;SDS011;59091;47.446;19.148;2023-04-16T14:11:38;2.10;;;1.20;;
71303;SDS011;59091;47.446;19.148;2023-04-16T14:14:03;2.67;;;1.20;;
71303;SDS011;59091;47.446;19.148;2023-04-16T14:16:29;2.25;;;1.20;;
71303;SDS011;59091;47.446;19.148;2023-04-16T14:18:54;2.42;;;1.05;;
71303;SDS011;59091;47.446;19.148;2023-04-16T14:21:20;1.55;;;1.30;;
71303;SDS011;59091;47.446;19.148;2023-04-16T14:23:45;1.35;;;1.20;;
71303;SDS011;59091;47.446;19.148;2023-04-16T14:26:11;1.88;;;1.10;;
71303;SDS011;59091;47.446;19.148;2023-04-16T14:28:36;2.40;;;1.10;;
71303;SDS011;59091;47.446;19.148;2023-04-16T14:31:03;4.65;;;1.77;;
71303;SDS011;59091;47.446;19.148;2023-04-16T14:33:28;2.65;;;1.40;;
71303;SDS011;59091;47.446;19.148;2023-04-16T14:35:54;1.85;;;1.27;;
71303;SDS011;59091;47.446;19.148;2023-04-16T14:38:19;2.17;;;1.33;;
71303;SDS011;59091;47.446;19.148;2023-04-16T14:40:45;3.10;;;1.48;;
71303;SDS011;59091;47.446;19.148;2023-04-16T14:43:10;3.70;;;1.20;;